createdAt,value
2022-08-05T00:00:20.045Z,3.95
2022-08-05T00:02:51.021Z,3.95
2022-08-05T00:06:01.768Z,4.50
2022-08-05T00:08:33.044Z,4.43
2022-08-05T00:11:00.569Z,4.60
2022-08-05T00:13:38.730Z,4.78
2022-08-05T00:16:12.848Z,4.60
2022-08-05T00:18:48.645Z,4.90
2022-08-05T00:21:17.465Z,4.90
2022-08-05T00:23:53.753Z,5.07
2022-08-05T00:26:33.593Z,5.25
2022-08-05T00:29:00.693Z,5.22
2022-08-05T00:31:53.862Z,5.57
2022-08-05T00:34:54.739Z,5.55
2022-08-05T00:37:10.448Z,6.07
2022-08-05T00:39:57.100Z,5.88
2022-08-05T00:42:36.704Z,5.97
2022-08-05T00:45:08.809Z,5.75
2022-08-05T00:47:57.187Z,6.18
2022-08-05T00:50:26.793Z,5.97
2022-08-05T00:52:54.998Z,6.40
2022-08-05T00:55:34.238Z,6.70
2022-08-05T00:58:11.660Z,5.70
2022-08-05T01:00:40.487Z,6.45
2022-08-05T01:03:22.233Z,6.45
2022-08-05T01:05:54.468Z,6.55
2022-08-05T01:08:40.996Z,6.95
2022-08-05T01:11:22.560Z,6.70
2022-08-05T01:14:18.172Z,6.90
2022-08-05T01:17:14.131Z,7.00
2022-08-05T01:20:03.070Z,6.90
2022-08-05T01:23:15.120Z,7.13
2022-08-05T01:25:58.145Z,7.00
2022-08-05T01:28:33.224Z,7.00
2022-08-05T01:31:12.381Z,6.95
2022-08-05T01:33:51.916Z,7.20
2022-08-05T01:36:28.343Z,6.82
2022-08-05T01:39:01.228Z,7.05
2022-08-05T01:41:33.775Z,7.20
2022-08-05T01:44:02.962Z,7.32
2022-08-05T01:46:42.417Z,7.60
2022-08-05T01:49:23.268Z,7.55
2022-08-05T01:51:58.302Z,7.05
2022-08-05T01:54:46.206Z,7.38
2022-08-05T01:58:12.557Z,7.30
2022-08-05T02:00:11.687Z,7.25
2022-08-05T02:02:54.541Z,7.75
2022-08-05T02:05:28.601Z,7.53
2022-08-05T02:08:01.601Z,7.10
2022-08-05T02:10:40.200Z,7.15
2022-08-05T02:13:16.252Z,7.43
2022-08-05T02:16:04.506Z,7.30
2022-08-05T02:18:42.506Z,6.55
2022-08-05T02:21:19.871Z,6.85
2022-08-05T02:23:52.399Z,7.18
2022-08-05T02:26:26.478Z,6.90
2022-08-05T02:28:56.352Z,7.28
2022-08-05T02:31:28.607Z,7.22
2022-08-05T02:34:06.962Z,6.60
2022-08-05T02:36:50.781Z,6.82
2022-08-05T02:39:21.418Z,5.50
2022-08-05T02:42:00.698Z,5.50
2022-08-05T02:44:32.007Z,5.82
2022-08-05T02:47:01.089Z,5.13
2022-08-05T02:49:37.019Z,5.57
2022-08-05T02:52:13.654Z,5.47
2022-08-05T02:54:58.914Z,5.80
2022-08-05T02:58:10.506Z,5.65
2022-08-05T03:00:18.409Z,5.30
2022-08-05T03:02:47.544Z,5.40
2022-08-05T03:05:16.351Z,5.22
2022-08-05T03:08:01.617Z,6.22
2022-08-05T03:10:32.083Z,6.45
2022-08-05T03:15:26.711Z,7.00
2022-08-05T03:17:57.743Z,6.60
2022-08-05T03:20:25.260Z,6.80
2022-08-05T03:22:53.366Z,6.60
2022-08-05T03:26:02.630Z,6.35
2022-08-05T03:28:14.095Z,6.70
2022-08-05T03:30:42.439Z,5.65
2022-08-05T03:33:10.107Z,6.18
2022-08-05T03:35:41.322Z,6.38
2022-08-05T03:38:11.959Z,6.68
2022-08-05T03:40:45.332Z,5.75
2022-08-05T03:44:09.830Z,5.88
2022-08-05T03:46:04.605Z,6.30
2022-08-05T03:48:35.677Z,5.75
2022-08-05T03:52:37.398Z,6.90
2022-08-05T03:55:53.611Z,6.28
2022-08-05T03:57:00.382Z,7.55
2022-08-05T03:59:46.762Z,5.90
2022-08-05T04:02:37.556Z,7.60
2022-08-05T04:05:09.736Z,7.65
2022-08-05T04:07:57.135Z,6.10
2022-08-05T04:10:25.308Z,6.05
2022-08-05T04:12:58.971Z,5.90
2022-08-05T04:15:32.935Z,6.10
2022-08-05T04:18:07.347Z,7.57
2022-08-05T04:20:37.108Z,6.93
2022-08-05T04:23:04.769Z,6.68
2022-08-05T04:25:56.912Z,6.50
2022-08-05T04:28:21.288Z,7.60
2022-08-05T04:30:58.897Z,5.80
2022-08-05T04:33:54.468Z,5.90
2022-08-05T04:36:49.903Z,6.40
2022-08-05T04:39:04.433Z,6.53
2022-08-05T04:41:37.314Z,6.88
2022-08-05T04:44:09.018Z,6.65
2022-08-05T04:46:38.641Z,7.05
2022-08-05T04:49:14.500Z,6.97
2022-08-05T04:51:44.201Z,6.80
2022-08-05T04:54:12.100Z,6.75
2022-08-05T04:56:40.125Z,6.50
2022-08-05T04:59:13.963Z,7.07
2022-08-05T05:02:08.387Z,6.65
2022-08-05T05:04:38.492Z,6.90
2022-08-05T05:07:12.264Z,6.88
2022-08-05T05:09:43.483Z,6.47
2022-08-05T05:12:11.837Z,6.57
2022-08-05T05:14:49.559Z,6.30
2022-08-05T05:17:23.717Z,6.65
2022-08-05T05:19:58.033Z,6.35
2022-08-05T05:22:27.411Z,6.05
2022-08-05T05:25:00.327Z,6.60
2022-08-05T05:27:44.195Z,6.47
2022-08-05T05:30:30.941Z,7.15
2022-08-05T05:33:13.948Z,6.70
2022-08-05T05:35:47.462Z,6.30
2022-08-05T05:38:27.021Z,6.25
2022-08-05T05:40:58.390Z,5.85
2022-08-05T05:43:54.225Z,5.50
2022-08-05T05:46:17.616Z,5.93
2022-08-05T05:48:48.923Z,6.88
2022-08-05T05:51:23.824Z,6.95
2022-08-05T05:53:57.226Z,7.25
2022-08-05T05:56:32.634Z,6.07
2022-08-05T05:59:06.789Z,6.80
2022-08-05T06:01:39.602Z,6.80
2022-08-05T06:04:14.579Z,6.60
2022-08-05T06:06:47.407Z,6.90
2022-08-05T06:09:25.813Z,6.70
2022-08-05T06:12:03.147Z,6.45
2022-08-05T06:14:31.200Z,6.90
2022-08-05T06:16:59.291Z,7.32
2022-08-05T06:19:34.967Z,7.00
2022-08-05T06:22:09.385Z,7.63
2022-08-05T06:24:41.800Z,7.60
2022-08-05T06:28:09.142Z,7.20
2022-08-05T06:30:20.072Z,7.55
2022-08-05T06:32:50.788Z,7.40
2022-08-05T06:36:02.906Z,8.05
2022-08-05T06:38:11.242Z,7.35
2022-08-05T06:40:42.119Z,7.10
2022-08-05T06:43:58.622Z,7.32
2022-08-05T06:46:06.561Z,7.35
2022-08-05T06:48:55.688Z,7.10
2022-08-05T06:51:30.235Z,7.32
2022-08-05T06:53:59.586Z,7.32
2022-08-05T06:56:28.154Z,6.78
2022-08-05T06:58:56.048Z,7.53
2022-08-05T07:01:27.700Z,7.28
2022-08-05T07:04:02.428Z,7.85
2022-08-05T07:06:31.807Z,7.22
2022-08-05T07:09:03.839Z,7.50
2022-08-05T07:11:37.192Z,7.60
2022-08-05T07:14:28.876Z,8.20
2022-08-05T07:17:58.595Z,7.85
2022-08-05T07:22:38.226Z,8.63
2022-08-05T07:25:23.945Z,8.00
2022-08-05T07:28:00.729Z,8.10
2022-08-05T07:30:33.691Z,7.75
2022-08-05T07:33:04.968Z,7.50
2022-08-05T07:36:03.642Z,8.13
2022-08-05T07:38:26.377Z,7.60
2022-08-05T07:42:09.547Z,7.65
2022-08-05T07:43:57.023Z,7.30
2022-08-05T07:46:30.649Z,7.50
2022-08-05T07:49:04.991Z,7.60
2022-08-05T07:51:40.601Z,8.02
2022-08-05T07:54:16.658Z,8.32
2022-08-05T07:57:14.828Z,8.50
2022-08-05T07:59:40.563Z,8.20
2022-08-05T08:02:15.750Z,8.68
2022-08-05T08:04:49.645Z,9.93
2022-08-05T08:07:23.138Z,9.55
2022-08-05T08:12:36.960Z,8.93
2022-08-05T08:15:15.553Z,9.18
2022-08-05T08:17:52.471Z,9.30
2022-08-05T08:20:59.833Z,9.52
2022-08-05T08:24:00.094Z,9.82
2022-08-05T08:26:00.260Z,9.90
2022-08-05T08:28:35.562Z,10.38
2022-08-05T08:33:59.365Z,9.52
2022-08-05T08:36:38.364Z,9.85
2022-08-05T08:39:15.435Z,9.82
2022-08-05T08:41:59.740Z,10.13
2022-08-05T08:45:20.397Z,9.55
2022-08-05T08:48:06.147Z,9.48
2022-08-05T08:50:31.224Z,8.98
2022-08-05T08:53:08.195Z,8.48
2022-08-05T08:56:03.556Z,8.98
2022-08-05T08:58:43.132Z,9.27
2022-08-05T09:01:16.355Z,8.63
2022-08-05T09:03:55.079Z,9.10
2022-08-05T09:06:28.020Z,8.70
2022-08-05T09:09:01.655Z,8.90
2022-08-05T09:11:50.747Z,9.32
2022-08-05T09:14:58.583Z,9.55
2022-08-05T09:17:09.801Z,9.10
2022-08-05T09:20:02.717Z,9.57
2022-08-05T09:23:27.271Z,9.35
2022-08-05T09:26:20.675Z,8.68
2022-08-05T09:28:50.196Z,8.95
2022-08-05T09:31:43.562Z,9.02
2022-08-05T09:34:10.438Z,8.38
2022-08-05T09:36:38.844Z,8.20
2022-08-05T09:39:27.610Z,8.15
2022-08-05T09:42:11.369Z,7.43
2022-08-05T09:44:56.430Z,7.93
2022-08-05T09:47:36.495Z,7.22
2022-08-05T09:50:37.530Z,7.78
2022-08-05T09:53:06.247Z,7.53
2022-08-05T09:55:57.336Z,7.30
2022-08-05T09:58:26.049Z,7.38
2022-08-05T10:01:01.547Z,7.00
2022-08-05T10:03:38.761Z,7.15
2022-08-05T10:06:22.325Z,6.13
2022-08-05T10:08:53.765Z,5.80
2022-08-05T10:11:23.317Z,6.43
2022-08-05T10:13:54.526Z,6.65
2022-08-05T10:16:37.890Z,5.90
2022-08-05T10:19:23.646Z,5.95
2022-08-05T10:21:59.597Z,6.10
2022-08-05T10:24:28.643Z,5.90
2022-08-05T10:27:00.245Z,5.82
2022-08-05T10:30:06.638Z,5.57
2022-08-05T10:32:53.124Z,5.43
2022-08-05T10:35:08.638Z,5.90
2022-08-05T10:37:40.103Z,5.43
2022-08-05T10:40:34.581Z,6.30
2022-08-05T10:43:41.709Z,5.93
2022-08-05T10:46:11.775Z,6.45
2022-08-05T10:48:57.086Z,6.13
2022-08-05T10:51:29.325Z,6.22
2022-08-05T10:54:05.914Z,6.55
2022-08-05T10:56:57.896Z,6.00
2022-08-05T11:00:02.793Z,6.15
2022-08-05T11:02:38.451Z,6.70
2022-08-05T11:05:11.007Z,5.20
2022-08-05T11:08:36.561Z,5.63
2022-08-05T11:11:52.371Z,4.45
2022-08-05T11:17:59.746Z,5.05
2022-08-05T11:20:43.860Z,4.88
2022-08-05T11:24:04.387Z,5.35
2022-08-05T11:26:32.586Z,5.18
2022-08-05T11:29:13.385Z,5.10
2022-08-05T11:31:54.040Z,4.68
2022-08-05T11:34:37.959Z,5.43
2022-08-05T11:38:14.314Z,4.60
2022-08-05T11:40:00.255Z,5.13
2022-08-05T11:42:40.560Z,5.47
2022-08-05T11:45:23.039Z,5.40
2022-08-05T11:47:57.377Z,5.72
2022-08-05T11:50:26.412Z,5.70
2022-08-05T11:52:57.706Z,6.07
2022-08-05T11:55:32.296Z,5.88
2022-08-05T11:58:10.969Z,5.57
2022-08-05T12:00:41.326Z,6.20
2022-08-05T12:03:31.320Z,6.53
2022-08-05T12:06:02.105Z,5.57
2022-08-05T12:08:31.737Z,5.78
2022-08-05T12:11:05.730Z,5.72
2022-08-05T12:13:48.639Z,5.93
2022-08-05T12:16:27.175Z,5.55
2022-08-05T12:18:57.488Z,6.45
2022-08-05T12:21:39.151Z,6.20
2022-08-05T12:24:19.534Z,5.60
2022-08-05T12:26:50.314Z,6.30
2022-08-05T12:29:23.533Z,6.68
2022-08-05T12:31:54.391Z,6.60
2022-08-05T12:34:26.961Z,6.30
2022-08-05T12:36:57.281Z,6.60
2022-08-05T12:39:28.140Z,6.40
2022-08-05T12:42:03.573Z,6.47
2022-08-05T12:44:33.915Z,6.30
2022-08-05T12:47:02.738Z,6.60
2022-08-05T12:50:03.970Z,6.40
2022-08-05T12:52:41.854Z,6.85
2022-08-05T12:55:28.327Z,6.57
2022-08-05T12:58:48.828Z,6.40
2022-08-05T13:02:03.859Z,6.80
2022-08-05T13:03:42.184Z,6.80
2022-08-05T13:06:18.307Z,6.90
2022-08-05T13:08:52.073Z,6.78
2022-08-05T13:12:01.577Z,6.18
2022-08-05T13:14:25.005Z,6.32
2022-08-05T13:17:09.132Z,6.53
2022-08-05T13:19:51.091Z,6.70
2022-08-05T13:22:29.138Z,6.28
2022-08-05T13:25:00.614Z,6.15
2022-08-05T13:27:38.233Z,6.65
2022-08-05T13:30:34.414Z,6.18
2022-08-05T13:33:04.304Z,6.60
2022-08-05T13:35:47.436Z,6.00
2022-08-05T13:38:31.115Z,6.57
2022-08-05T13:41:04.003Z,5.80
2022-08-05T13:43:45.618Z,6.45
2022-08-05T13:46:35.854Z,6.32
2022-08-05T13:49:10.495Z,6.38
2022-08-05T13:51:46.409Z,5.75
2022-08-05T13:54:16.552Z,5.68
2022-08-05T13:56:51.378Z,6.22
2022-08-05T13:59:26.861Z,5.95
2022-08-05T14:01:58.832Z,5.95
2022-08-05T14:04:56.124Z,6.00
2022-08-05T14:08:00.844Z,5.60
2022-08-05T14:10:28.553Z,5.60
2022-08-05T14:12:59.454Z,5.40
2022-08-05T14:16:08.773Z,5.63
2022-08-05T14:18:17.680Z,6.50
2022-08-05T14:20:54.546Z,5.50
2022-08-05T14:23:25.831Z,5.57
2022-08-05T14:25:58.763Z,5.75
2022-08-05T14:28:29.683Z,5.82
2022-08-05T14:30:59.150Z,5.93
2022-08-05T14:33:26.365Z,5.55
2022-08-05T14:35:54.924Z,6.03
2022-08-05T14:38:32.458Z,6.38
2022-08-05T14:41:07.232Z,6.50
2022-08-05T14:43:59.058Z,5.90
2022-08-05T14:46:29.766Z,5.80
2022-08-05T14:49:06.963Z,5.55
2022-08-05T14:51:37.445Z,6.95
2022-08-05T14:54:28.401Z,6.50
2022-08-05T14:56:56.920Z,6.10
2022-08-05T14:59:24.856Z,5.80
2022-08-05T15:01:53.796Z,7.13
2022-08-05T15:04:22.684Z,6.18
2022-08-05T15:06:51.177Z,6.10
2022-08-05T15:09:51.099Z,6.10
2022-08-05T15:12:08.959Z,6.05
2022-08-05T15:14:41.395Z,6.15
2022-08-05T15:17:44.787Z,6.15
2022-08-05T15:20:05.330Z,6.72
2022-08-05T15:22:33.356Z,7.07
2022-08-05T15:25:00.775Z,6.70
2022-08-05T15:27:42.863Z,7.10
2022-08-05T15:30:19.336Z,7.80
2022-08-05T15:32:47.433Z,7.57
2022-08-05T15:35:15.090Z,7.78
2022-08-05T15:38:32.760Z,7.07
2022-08-05T15:40:58.793Z,6.63
2022-08-05T15:43:20.139Z,6.65
2022-08-05T15:46:00.394Z,6.10
2022-08-05T15:48:28.656Z,6.10
2022-08-05T15:50:56.367Z,6.13
2022-08-05T15:53:26.372Z,5.90
2022-08-05T15:56:03.898Z,6.18
2022-08-05T15:58:35.782Z,5.93
2022-08-05T16:01:16.947Z,6.28
2022-08-05T16:03:50.750Z,6.43
2022-08-05T16:06:19.948Z,6.05
2022-08-05T16:08:50.930Z,6.20
2022-08-05T16:11:21.134Z,6.30
2022-08-05T16:14:06.155Z,6.03
2022-08-05T16:16:35.352Z,6.47
2022-08-05T16:19:03.766Z,6.20
2022-08-05T16:21:58.227Z,6.47
2022-08-05T16:24:40.771Z,6.72
2022-08-05T16:27:07.325Z,6.53
2022-08-05T16:29:37.274Z,6.43
2022-08-05T16:32:09.699Z,6.80
2022-08-05T16:34:39.371Z,6.30
2022-08-05T16:38:01.885Z,6.30
2022-08-05T16:40:05.961Z,6.00
2022-08-05T16:42:38.885Z,6.13
2022-08-05T16:46:04.818Z,5.68
2022-08-05T16:48:02.693Z,5.90
2022-08-05T16:50:30.836Z,6.78
2022-08-05T16:52:58.942Z,6.50
2022-08-05T16:55:46.824Z,5.93
2022-08-05T16:58:14.725Z,6.50
2022-08-05T17:00:49.671Z,6.53
2022-08-05T17:03:19.815Z,6.47
2022-08-05T17:05:53.942Z,6.28
2022-08-05T17:08:33.644Z,7.03
2022-08-05T17:11:18.896Z,7.03
2022-08-05T17:13:46.701Z,6.85
2022-08-05T17:16:32.714Z,7.40
2022-08-05T17:19:01.849Z,6.20
2022-08-05T17:21:36.023Z,6.25
2022-08-05T17:24:30.180Z,7.43
2022-08-05T17:27:00.536Z,6.80
2022-08-05T17:29:39.931Z,6.60
2022-08-05T17:32:11.810Z,7.20
2022-08-05T17:34:48.226Z,7.53
2022-08-05T17:37:39.716Z,6.93
2022-08-05T17:40:10.886Z,7.40
2022-08-05T17:42:42.928Z,7.13
2022-08-05T17:45:38.075Z,7.45
2022-08-05T17:48:08.198Z,7.40
2022-08-05T17:50:35.898Z,6.97
2022-08-05T17:53:05.059Z,7.30
2022-08-05T17:55:38.163Z,7.25
2022-08-05T17:58:12.408Z,7.65
2022-08-05T18:00:47.450Z,7.45
2022-08-05T18:03:56.071Z,7.40
2022-08-05T18:06:12.018Z,7.55
2022-08-05T18:08:45.754Z,7.88
2022-08-05T18:11:23.701Z,7.28
2022-08-05T18:16:21.416Z,7.32
2022-08-05T18:18:50.133Z,7.60
2022-08-05T18:21:21.082Z,7.70
2022-08-05T18:23:53.698Z,7.40
2022-08-05T18:26:27.538Z,7.32
2022-08-05T18:28:57.453Z,7.85
2022-08-05T18:31:25.147Z,8.00
2022-08-05T18:33:52.790Z,7.57
2022-08-05T18:36:20.399Z,7.40
2022-08-05T18:38:56.064Z,7.53
2022-08-05T18:41:54.149Z,7.60
2022-08-05T18:44:12.740Z,7.97
2022-08-05T18:46:41.002Z,7.38
2022-08-05T18:49:30.665Z,7.70
2022-08-05T18:52:32.684Z,7.53
2022-08-05T18:55:02.941Z,8.43
2022-08-05T18:57:43.164Z,8.23
2022-08-05T19:00:20.326Z,8.23
2022-08-05T19:02:48.441Z,8.20
2022-08-05T19:06:11.984Z,8.45
2022-08-05T19:08:13.477Z,8.57
2022-08-05T19:10:42.775Z,8.60
2022-08-05T19:13:12.255Z,8.30
2022-08-05T19:15:58.740Z,8.20
2022-08-05T19:18:29.097Z,8.23
2022-08-05T19:20:56.542Z,7.90
2022-08-05T19:24:06.804Z,8.27
2022-08-05T19:26:12.754Z,8.15
2022-08-05T19:28:44.074Z,8.27
2022-08-05T19:31:13.284Z,8.20
2022-08-05T19:33:48.493Z,8.13
2022-08-05T19:36:29.369Z,8.40
2022-08-05T19:39:01.414Z,8.27
2022-08-05T19:41:58.323Z,9.00
2022-08-05T19:44:19.094Z,7.95
2022-08-05T19:46:47.369Z,8.45
2022-08-05T19:49:18.082Z,8.52
2022-08-05T19:52:08.546Z,8.68
2022-08-05T19:54:35.409Z,8.45
2022-08-05T19:57:08.577Z,8.32
2022-08-05T19:59:56.428Z,8.38
2022-08-05T20:02:31.460Z,8.32
2022-08-05T20:04:59.966Z,8.82
2022-08-05T20:07:47.528Z,8.73
2022-08-05T20:10:17.265Z,8.55
2022-08-05T20:12:49.226Z,8.98
2022-08-05T20:15:48.543Z,8.65
2022-08-05T20:18:10.602Z,8.60
2022-08-05T20:20:55.063Z,8.57
2022-08-05T20:23:39.818Z,8.25
2022-08-05T20:26:16.110Z,8.48
2022-08-05T20:28:49.869Z,8.68
2022-08-05T20:31:21.873Z,8.75
2022-08-05T20:33:51.989Z,8.60
2022-08-05T20:36:20.884Z,8.70
2022-08-05T20:38:54.687Z,8.32
2022-08-05T20:41:43.462Z,8.65
2022-08-05T20:44:17.736Z,8.77
2022-08-05T20:46:48.234Z,8.70
2022-08-05T20:49:24.114Z,9.13
2022-08-05T20:51:54.271Z,9.43
2022-08-05T20:54:55.573Z,8.90
2022-08-05T20:57:42.255Z,9.35
2022-08-05T21:00:19.756Z,9.25
2022-08-05T21:02:56.970Z,9.07
2022-08-05T21:05:24.771Z,8.43
2022-08-05T21:07:52.581Z,9.60
2022-08-05T21:10:20.826Z,8.93
2022-08-05T21:12:58.166Z,8.98
2022-08-05T21:15:37.038Z,8.40
2022-08-05T21:18:04.529Z,8.18
2022-08-05T21:20:32.947Z,8.13
2022-08-05T21:23:01.244Z,8.02
2022-08-05T21:25:33.845Z,7.93
2022-08-05T21:28:03.119Z,6.72
2022-08-05T21:30:31.929Z,7.18
2022-08-05T21:33:01.797Z,7.00
2022-08-05T21:35:56.007Z,6.53
2022-08-05T21:38:19.319Z,6.55
2022-08-05T21:40:46.511Z,6.40
2022-08-05T21:43:24.249Z,6.88
2022-08-05T21:45:57.827Z,6.75
2022-08-05T21:48:28.869Z,5.97
2022-08-05T21:50:57.414Z,6.20
2022-08-05T21:53:27.766Z,6.40
2022-08-05T21:56:06.579Z,6.18
2022-08-05T21:58:57.135Z,6.05
2022-08-05T22:01:26.193Z,6.10
2022-08-05T22:03:54.034Z,6.07
2022-08-05T22:06:39.547Z,6.00
2022-08-05T22:09:15.145Z,6.07
2022-08-05T22:11:47.999Z,5.60
2022-08-05T22:14:35.547Z,5.82
2022-08-05T22:17:07.078Z,5.40
2022-08-05T22:20:01.348Z,5.72
2022-08-05T22:22:28.021Z,6.03
2022-08-05T22:25:21.342Z,6.05
2022-08-05T22:28:08.942Z,5.72
2022-08-05T22:30:55.783Z,5.93
2022-08-05T22:33:55.371Z,6.00
2022-08-05T22:36:14.205Z,6.15
2022-08-05T22:38:47.917Z,6.22
2022-08-05T22:42:04.250Z,6.13
2022-08-05T22:44:07.223Z,5.88
2022-08-05T22:46:39.723Z,5.32
2022-08-05T22:49:12.514Z,5.60
2022-08-05T22:52:04.447Z,5.38
2022-08-05T22:54:34.376Z,5.60
2022-08-05T22:57:01.619Z,5.45
2022-08-05T22:59:48.468Z,5.65
2022-08-05T23:02:28.916Z,5.57
2022-08-05T23:05:01.799Z,5.13
2022-08-05T23:07:43.782Z,4.88
2022-08-05T23:10:13.226Z,5.20
2022-08-05T23:12:40.727Z,4.88
2022-08-05T23:15:11.920Z,5.28
2022-08-05T23:18:00.671Z,5.20
2022-08-05T23:20:26.668Z,5.00
2022-08-05T23:22:55.851Z,5.03
2022-08-05T23:25:52.196Z,5.38
2022-08-05T23:28:12.196Z,5.30
2022-08-05T23:30:43.532Z,4.78
2022-08-05T23:33:21.982Z,5.05
2022-08-05T23:35:56.015Z,5.22
2022-08-05T23:38:26.170Z,5.18
2022-08-05T23:40:54.461Z,5.20
2022-08-05T23:43:25.443Z,4.85
2022-08-05T23:46:20.958Z,5.10
2022-08-05T23:49:00.257Z,4.82
2022-08-05T23:51:54.888Z,4.97
2022-08-05T23:54:30.214Z,4.85
2022-08-05T23:57:04.172Z,5.00
2022-08-05T23:59:37.740Z,4.90
